sensor_id;sensor_type;location;lat;lon;timestamp;temperature;humidity
2523;DHT22;1272;53.332;9.860;2024-01-30T00:01:26;4.00;1.00
2523;DHT22;1272;53.332;9.860;2024-01-30T00:03:52;4.00;1.00
2523;DHT22;1272;53.332;9.860;2024-01-30T00:06:21;3.90;1.00
2523;DHT22;1272;53.332;9.860;2024-01-30T00:08:47;3.90;99.90
2523;DHT22;1272;53.332;9.860;2024-01-30T00:11:15;3.80;1.00
2523;DHT22;1272;53.332;9.860;2024-01-30T00:13:41;3.70;1.00
2523;DHT22;1272;53.332;9.860;2024-01-30T00:16:07;3.70;99.90
2523;DHT22;1272;53.332;9.860;2024-01-30T00:18:34;3.60;99.90
2523;DHT22;1272;53.332;9.860;2024-01-30T00:21:00;3.50;99.90
2523;DHT22;1272;53.332;9.860;2024-01-30T00:23:25;3.50;1.00
2523;DHT22;1272;53.332;9.860;2024-01-30T00:25:51;3.40;1.00
2523;DHT22;1272;53.332;9.860;2024-01-30T00:28:17;3.40;1.00
2523;DHT22;1272;53.332;9.860;2024-01-30T00:30:42;3.30;1.00
2523;DHT22;1272;53.332;9.860;2024-01-30T00:33:09;3.30;1.00
2523;DHT22;1272;53.332;9.860;2024-01-30T00:35:34;3.30;1.00
2523;DHT22;1272;53.332;9.860;2024-01-30T00:38:00;3.20;1.00
2523;DHT22;1272;53.332;9.860;2024-01-30T00:40:26;3.20;1.00
2523;DHT22;1272;53.332;9.860;2024-01-30T00:42:52;3.10;1.00
2523;DHT22;1272;53.332;9.860;2024-01-30T00:45:18;3.10;1.00
2523;DHT22;1272;53.332;9.860;2024-01-30T00:47:44;3.00;1.00
2523;DHT22;1272;53.332;9.860;2024-01-30T00:50:10;3.00;1.00
2523;DHT22;1272;53.332;9.860;2024-01-30T00:52:36;3.00;1.00
2523;DHT22;1272;53.332;9.860;2024-01-30T00:55:02;2.90;1.00
2523;DHT22;1272;53.332;9.860;2024-01-30T00:57:28;2.90;1.00
2523;DHT22;1272;53.332;9.860;2024-01-30T00:59:54;2.80;1.00
2523;DHT22;1272;53.332;9.860;2024-01-30T01:02:20;2.80;35.50
2523;DHT22;1272;53.332;9.860;2024-01-30T01:04:46;2.80;99.90
2523;DHT22;1272;53.332;9.860;2024-01-30T01:07:11;2.70;99.90
2523;DHT22;1272;53.332;9.860;2024-01-30T01:09:37;2.70;99.90
2523;DHT22;1272;53.332;9.860;2024-01-30T01:12:04;2.70;99.90
2523;DHT22;1272;53.332;9.860;2024-01-30T01:14:30;2.60;99.90
2523;DHT22;1272;53.332;9.860;2024-01-30T01:16:55;2.60;99.90
2523;DHT22;1272;53.332;9.860;2024-01-30T01:19:21;2.60;99.90
2523;DHT22;1272;53.332;9.860;2024-01-30T01:21:47;2.60;1.00
2523;DHT22;1272;53.332;9.860;2024-01-30T01:24:13;2.60;1.00
2523;DHT22;1272;53.332;9.860;2024-01-30T01:26:39;2.50;1.00
2523;DHT22;1272;53.332;9.860;2024-01-30T01:29:06;2.50;1.00
2523;DHT22;1272;53.332;9.860;2024-01-30T01:31:37;2.50;1.00
2523;DHT22;1272;53.332;9.860;2024-01-30T01:34:12;2.50;1.00
2523;DHT22;1272;53.332;9.860;2024-01-30T01:36:39;2.40;1.00
2523;DHT22;1272;53.332;9.860;2024-01-30T01:39:04;2.40;1.00
2523;DHT22;1272;53.332;9.860;2024-01-30T01:41:31;2.40;2.80
2523;DHT22;1272;53.332;9.860;2024-01-30T01:43:57;2.40;1.00
2523;DHT22;1272;53.332;9.860;2024-01-30T01:46:26;2.30;22.20
2523;DHT22;1272;53.332;9.860;2024-01-30T01:48:52;2.30;98.60
2523;DHT22;1272;53.332;9.860;2024-01-30T01:51:19;2.30;57.70
2523;DHT22;1272;53.332;9.860;2024-01-30T01:53:45;2.30;29.80
2523;DHT22;1272;53.332;9.860;2024-01-30T01:56:11;2.30;37.80
2523;DHT22;1272;53.332;9.860;2024-01-30T01:58:37;2.20;1.00
2523;DHT22;1272;53.332;9.860;2024-01-30T02:01:04;2.20;1.00
2523;DHT22;1272;53.332;9.860;2024-01-30T02:03:30;2.20;20.70
2523;DHT22;1272;53.332;9.860;2024-01-30T02:05:57;2.10;99.90
2523;DHT22;1272;53.332;9.860;2024-01-30T02:08:23;2.20;99.90
2523;DHT22;1272;53.332;9.860;2024-01-30T02:10:49;2.20;99.90
2523;DHT22;1272;53.332;9.860;2024-01-30T02:13:15;2.20;99.90
2523;DHT22;1272;53.332;9.860;2024-01-30T02:15:41;2.10;1.00
2523;DHT22;1272;53.332;9.860;2024-01-30T02:18:07;2.10;1.00
2523;DHT22;1272;53.332;9.860;2024-01-30T02:20:35;2.10;1.00
2523;DHT22;1272;53.332;9.860;2024-01-30T02:23:01;2.10;1.00
2523;DHT22;1272;53.332;9.860;2024-01-30T02:25:37;2.10;1.00
2523;DHT22;1272;53.332;9.860;2024-01-30T02:28:03;2.10;1.00
2523;DHT22;1272;53.332;9.860;2024-01-30T02:30:29;2.20;1.00
2523;DHT22;1272;53.332;9.860;2024-01-30T02:32:55;2.20;95.90
2523;DHT22;1272;53.332;9.860;2024-01-30T02:35:21;2.20;99.90
2523;DHT22;1272;53.332;9.860;2024-01-30T02:37:46;2.20;99.90
2523;DHT22;1272;53.332;9.860;2024-01-30T02:40:12;2.20;99.90
2523;DHT22;1272;53.332;9.860;2024-01-30T02:42:38;2.20;99.90
2523;DHT22;1272;53.332;9.860;2024-01-30T02:45:04;2.20;99.90
2523;DHT22;1272;53.332;9.860;2024-01-30T02:47:30;2.20;99.90
2523;DHT22;1272;53.332;9.860;2024-01-30T02:49:56;2.20;99.90
2523;DHT22;1272;53.332;9.860;2024-01-30T02:52:22;2.20;99.90
2523;DHT22;1272;53.332;9.860;2024-01-30T02:54:47;2.20;99.90
2523;DHT22;1272;53.332;9.860;2024-01-30T02:57:13;2.20;99.90
2523;DHT22;1272;53.332;9.860;2024-01-30T02:59:39;2.20;99.90
2523;DHT22;1272;53.332;9.860;2024-01-30T03:02:04;2.20;99.90
2523;DHT22;1272;53.332;9.860;2024-01-30T03:04:30;2.20;1.00
2523;DHT22;1272;53.332;9.860;2024-01-30T03:06:56;2.20;1.00
2523;DHT22;1272;53.332;9.860;2024-01-30T03:09:22;2.30;1.00
2523;DHT22;1272;53.332;9.860;2024-01-30T03:11:47;2.30;1.00
2523;DHT22;1272;53.332;9.860;2024-01-30T03:14:13;2.30;1.00
2523;DHT22;1272;53.332;9.860;2024-01-30T03:16:39;2.30;1.00
2523;DHT22;1272;53.332;9.860;2024-01-30T03:19:06;2.30;37.70
2523;DHT22;1272;53.332;9.860;2024-01-30T03:21:34;2.40;60.00
2523;DHT22;1272;53.332;9.860;2024-01-30T03:24:00;2.40;97.60
2523;DHT22;1272;53.332;9.860;2024-01-30T03:26:26;2.40;99.90
2523;DHT22;1272;53.332;9.860;2024-01-30T03:28:51;2.40;70.90
2523;DHT22;1272;53.332;9.860;2024-01-30T03:31:17;2.40;99.90
2523;DHT22;1272;53.332;9.860;2024-01-30T03:33:43;2.40;99.90
2523;DHT22;1272;53.332;9.860;2024-01-30T03:36:09;2.30;1.00
2523;DHT22;1272;53.332;9.860;2024-01-30T03:38:35;2.30;1.00
2523;DHT22;1272;53.332;9.860;2024-01-30T03:41:01;2.30;57.40
2523;DHT22;1272;53.332;9.860;2024-01-30T03:43:27;2.30;1.00
2523;DHT22;1272;53.332;9.860;2024-01-30T03:45:52;2.20;13.80
2523;DHT22;1272;53.332;9.860;2024-01-30T03:48:19;2.20;1.00
2523;DHT22;1272;53.332;9.860;2024-01-30T03:50:45;2.20;53.70
2523;DHT22;1272;53.332;9.860;2024-01-30T03:53:11;2.20;1.00
2523;DHT22;1272;53.332;9.860;2024-01-30T03:55:37;2.20;1.00
2523;DHT22;1272;53.332;9.860;2024-01-30T03:58:02;2.20;19.60
2523;DHT22;1272;53.332;9.860;2024-01-30T04:00:28;2.20;56.80
2523;DHT22;1272;53.332;9.860;2024-01-30T04:02:54;2.20;86.70
2523;DHT22;1272;53.332;9.860;2024-01-30T04:05:19;2.20;99.90
2523;DHT22;1272;53.332;9.860;2024-01-30T04:07:45;2.20;99.90
2523;DHT22;1272;53.332;9.860;2024-01-30T04:10:12;2.20;99.90
2523;DHT22;1272;53.332;9.860;2024-01-30T04:12:37;2.20;99.90
2523;DHT22;1272;53.332;9.860;2024-01-30T04:15:04;2.30;99.90
2523;DHT22;1272;53.332;9.860;2024-01-30T04:17:29;2.30;99.90
2523;DHT22;1272;53.332;9.860;2024-01-30T04:19:55;2.30;99.90
2523;DHT22;1272;53.332;9.860;2024-01-30T04:22:21;2.30;99.90
2523;DHT22;1272;53.332;9.860;2024-01-30T04:24:46;2.30;99.90
2523;DHT22;1272;53.332;9.860;2024-01-30T04:27:12;2.30;99.90
2523;DHT22;1272;53.332;9.860;2024-01-30T04:29:38;2.30;99.90
2523;DHT22;1272;53.332;9.860;2024-01-30T04:32:04;2.30;99.90
2523;DHT22;1272;53.332;9.860;2024-01-30T04:34:30;2.20;99.90
2523;DHT22;1272;53.332;9.860;2024-01-30T04:36:55;2.30;99.90
2523;DHT22;1272;53.332;9.860;2024-01-30T04:39:21;2.30;99.90
2523;DHT22;1272;53.332;9.860;2024-01-30T04:41:47;2.20;99.90
2523;DHT22;1272;53.332;9.860;2024-01-30T04:44:14;2.20;99.90
2523;DHT22;1272;53.332;9.860;2024-01-30T04:46:40;2.20;99.90
2523;DHT22;1272;53.332;9.860;2024-01-30T04:49:05;2.10;99.90
2523;DHT22;1272;53.332;9.860;2024-01-30T04:51:33;2.10;99.90
2523;DHT22;1272;53.332;9.860;2024-01-30T04:53:59;2.10;99.90
2523;DHT22;1272;53.332;9.860;2024-01-30T04:56:24;2.10;99.90
2523;DHT22;1272;53.332;9.860;2024-01-30T04:58:50;2.10;99.90
2523;DHT22;1272;53.332;9.860;2024-01-30T05:01:16;2.10;99.90
2523;DHT22;1272;53.332;9.860;2024-01-30T05:03:42;2.10;99.90
2523;DHT22;1272;53.332;9.860;2024-01-30T05:06:08;2.00;99.90
2523;DHT22;1272;53.332;9.860;2024-01-30T05:08:34;2.10;99.90
2523;DHT22;1272;53.332;9.860;2024-01-30T05:11:02;2.10;99.90
2523;DHT22;1272;53.332;9.860;2024-01-30T05:13:30;2.10;99.90
2523;DHT22;1272;53.332;9.860;2024-01-30T05:15:56;2.00;99.90
2523;DHT22;1272;53.332;9.860;2024-01-30T05:18:21;2.00;99.90
2523;DHT22;1272;53.332;9.860;2024-01-30T05:20:47;2.00;99.90
2523;DHT22;1272;53.332;9.860;2024-01-30T05:23:13;1.90;99.90
2523;DHT22;1272;53.332;9.860;2024-01-30T05:25:38;1.90;99.90
2523;DHT22;1272;53.332;9.860;2024-01-30T05:28:04;1.90;99.90
2523;DHT22;1272;53.332;9.860;2024-01-30T05:30:33;1.90;99.90
2523;DHT22;1272;53.332;9.860;2024-01-30T05:32:58;1.90;99.90
2523;DHT22;1272;53.332;9.860;2024-01-30T05:35:24;2.00;99.90
2523;DHT22;1272;53.332;9.860;2024-01-30T05:37:50;1.90;99.90
2523;DHT22;1272;53.332;9.860;2024-01-30T05:40:16;1.90;99.90
2523;DHT22;1272;53.332;9.860;2024-01-30T05:42:42;1.90;99.90
2523;DHT22;1272;53.332;9.860;2024-01-30T05:45:08;1.90;99.90
2523;DHT22;1272;53.332;9.860;2024-01-30T05:47:34;1.90;99.90
2523;DHT22;1272;53.332;9.860;2024-01-30T05:50:00;1.90;99.90
2523;DHT22;1272;53.332;9.860;2024-01-30T05:52:26;1.90;99.90
2523;DHT22;1272;53.332;9.860;2024-01-30T05:54:52;1.90;99.90
2523;DHT22;1272;53.332;9.860;2024-01-30T05:57:17;1.90;99.90
2523;DHT22;1272;53.332;9.860;2024-01-30T05:59:44;1.90;99.90
2523;DHT22;1272;53.332;9.860;2024-01-30T06:02:13;1.90;99.90
2523;DHT22;1272;53.332;9.860;2024-01-30T06:04:39;1.90;1.00
2523;DHT22;1272;53.332;9.860;2024-01-30T06:07:05;1.90;1.00
2523;DHT22;1272;53.332;9.860;2024-01-30T06:09:31;2.00;1.00
2523;DHT22;1272;53.332;9.860;2024-01-30T06:11:57;2.00;1.00
2523;DHT22;1272;53.332;9.860;2024-01-30T06:14:23;2.00;1.00
2523;DHT22;1272;53.332;9.860;2024-01-30T06:16:49;2.00;1.00
2523;DHT22;1272;53.332;9.860;2024-01-30T06:19:15;2.10;1.00
2523;DHT22;1272;53.332;9.860;2024-01-30T06:21:41;2.10;1.00
2523;DHT22;1272;53.332;9.860;2024-01-30T06:24:07;2.20;1.00
2523;DHT22;1272;53.332;9.860;2024-01-30T06:26:33;2.20;1.00
2523;DHT22;1272;53.332;9.860;2024-01-30T06:28:59;2.20;1.00
2523;DHT22;1272;53.332;9.860;2024-01-30T06:31:25;2.20;1.00
2523;DHT22;1272;53.332;9.860;2024-01-30T06:33:50;2.30;1.00
2523;DHT22;1272;53.332;9.860;2024-01-30T06:36:16;2.30;1.00
2523;DHT22;1272;53.332;9.860;2024-01-30T06:38:42;2.30;1.00
2523;DHT22;1272;53.332;9.860;2024-01-30T06:41:07;2.30;1.00
2523;DHT22;1272;53.332;9.860;2024-01-30T06:43:33;2.30;1.00
2523;DHT22;1272;53.332;9.860;2024-01-30T06:45:59;2.30;1.00
2523;DHT22;1272;53.332;9.860;2024-01-30T06:48:25;2.40;1.00
2523;DHT22;1272;53.332;9.860;2024-01-30T06:50:53;2.40;1.00
2523;DHT22;1272;53.332;9.860;2024-01-30T06:53:19;2.40;1.00
2523;DHT22;1272;53.332;9.860;2024-01-30T06:55:45;2.40;1.00
2523;DHT22;1272;53.332;9.860;2024-01-30T06:58:11;2.40;1.00
2523;DHT22;1272;53.332;9.860;2024-01-30T07:00:37;2.40;1.00
2523;DHT22;1272;53.332;9.860;2024-01-30T07:03:03;2.40;1.00
2523;DHT22;1272;53.332;9.860;2024-01-30T07:05:28;2.40;1.00
2523;DHT22;1272;53.332;9.860;2024-01-30T07:07:54;2.40;1.00
2523;DHT22;1272;53.332;9.860;2024-01-30T07:10:20;2.40;1.00
2523;DHT22;1272;53.332;9.860;2024-01-30T07:12:46;2.40;1.00
2523;DHT22;1272;53.332;9.860;2024-01-30T07:15:12;2.40;1.70
2523;DHT22;1272;53.332;9.860;2024-01-30T07:17:40;2.50;1.80
2523;DHT22;1272;53.332;9.860;2024-01-30T07:20:06;2.50;14.80
2523;DHT22;1272;53.332;9.860;2024-01-30T07:22:33;2.50;6.20
2523;DHT22;1272;53.332;9.860;2024-01-30T07:24:58;2.50;13.00
2523;DHT22;1272;53.332;9.860;2024-01-30T07:27:24;2.50;10.00
2523;DHT22;1272;53.332;9.860;2024-01-30T07:29:50;2.50;17.30
2523;DHT22;1272;53.332;9.860;2024-01-30T07:32:16;2.50;12.20
2523;DHT22;1272;53.332;9.860;2024-01-30T07:34:41;2.50;8.40
2523;DHT22;1272;53.332;9.860;2024-01-30T07:37:07;2.50;11.40
2523;DHT22;1272;53.332;9.860;2024-01-30T07:39:34;2.50;17.40
2523;DHT22;1272;53.332;9.860;2024-01-30T07:42:00;2.50;25.80
2523;DHT22;1272;53.332;9.860;2024-01-30T07:44:25;2.60;29.30
2523;DHT22;1272;53.332;9.860;2024-01-30T07:46:51;2.50;18.30
2523;DHT22;1272;53.332;9.860;2024-01-30T07:49:17;2.60;21.60
2523;DHT22;1272;53.332;9.860;2024-01-30T07:51:43;2.60;17.40
2523;DHT22;1272;53.332;9.860;2024-01-30T07:54:10;2.50;19.60
2523;DHT22;1272;53.332;9.860;2024-01-30T07:56:36;2.60;45.00
2523;DHT22;1272;53.332;9.860;2024-01-30T07:59:01;2.60;40.20
2523;DHT22;1272;53.332;9.860;2024-01-30T08:01:27;2.60;48.50
2523;DHT22;1272;53.332;9.860;2024-01-30T08:03:53;2.60;50.20
2523;DHT22;1272;53.332;9.860;2024-01-30T08:06:18;2.70;62.30
2523;DHT22;1272;53.332;9.860;2024-01-30T08:08:45;2.70;73.10
2523;DHT22;1272;53.332;9.860;2024-01-30T08:11:10;2.70;90.30
2523;DHT22;1272;53.332;9.860;2024-01-30T08:13:36;2.80;90.10
2523;DHT22;1272;53.332;9.860;2024-01-30T08:16:02;2.80;91.70
2523;DHT22;1272;53.332;9.860;2024-01-30T08:18:28;2.80;97.20
2523;DHT22;1272;53.332;9.860;2024-01-30T08:20:53;2.80;99.90
2523;DHT22;1272;53.332;9.860;2024-01-30T08:23:19;2.90;99.90
2523;DHT22;1272;53.332;9.860;2024-01-30T08:25:45;3.00;99.90
2523;DHT22;1272;53.332;9.860;2024-01-30T08:28:10;3.00;99.90
2523;DHT22;1272;53.332;9.860;2024-01-30T08:30:36;3.10;99.90
2523;DHT22;1272;53.332;9.860;2024-01-30T08:33:02;3.10;99.90
2523;DHT22;1272;53.332;9.860;2024-01-30T08:35:28;3.20;99.90
2523;DHT22;1272;53.332;9.860;2024-01-30T08:37:53;3.30;99.90
2523;DHT22;1272;53.332;9.860;2024-01-30T08:40:19;3.30;99.90
2523;DHT22;1272;53.332;9.860;2024-01-30T08:42:45;3.40;99.90
2523;DHT22;1272;53.332;9.860;2024-01-30T08:45:11;3.40;99.90
2523;DHT22;1272;53.332;9.860;2024-01-30T08:47:37;3.50;99.90
2523;DHT22;1272;53.332;9.860;2024-01-30T08:50:03;3.50;99.90
2523;DHT22;1272;53.332;9.860;2024-01-30T08:52:29;3.60;99.90
2523;DHT22;1272;53.332;9.860;2024-01-30T08:54:55;3.70;99.90
2523;DHT22;1272;53.332;9.860;2024-01-30T08:57:20;3.80;99.90
2523;DHT22;1272;53.332;9.860;2024-01-30T08:59:46;3.90;99.90
2523;DHT22;1272;53.332;9.860;2024-01-30T09:02:13;4.00;99.90
2523;DHT22;1272;53.332;9.860;2024-01-30T09:04:41;4.00;99.90
2523;DHT22;1272;53.332;9.860;2024-01-30T09:07:08;4.10;99.90
2523;DHT22;1272;53.332;9.860;2024-01-30T09:09:34;4.20;99.90
2523;DHT22;1272;53.332;9.860;2024-01-30T09:12:00;4.30;99.90
2523;DHT22;1272;53.332;9.860;2024-01-30T09:14:32;4.40;99.90
2523;DHT22;1272;53.332;9.860;2024-01-30T09:16:58;4.40;99.90
2523;DHT22;1272;53.332;9.860;2024-01-30T09:19:23;4.50;99.90
2523;DHT22;1272;53.332;9.860;2024-01-30T09:21:49;4.50;99.90
2523;DHT22;1272;53.332;9.860;2024-01-30T09:24:15;4.70;99.90
2523;DHT22;1272;53.332;9.860;2024-01-30T09:26:40;4.70;99.90
2523;DHT22;1272;53.332;9.860;2024-01-30T09:29:06;4.80;99.90
2523;DHT22;1272;53.332;9.860;2024-01-30T09:31:32;4.90;99.90
2523;DHT22;1272;53.332;9.860;2024-01-30T09:33:57;5.00;99.90
2523;DHT22;1272;53.332;9.860;2024-01-30T09:36:23;5.20;99.90
2523;DHT22;1272;53.332;9.860;2024-01-30T09:38:49;5.30;99.90
2523;DHT22;1272;53.332;9.860;2024-01-30T09:41:15;5.40;99.90
2523;DHT22;1272;53.332;9.860;2024-01-30T09:43:47;5.50;99.90
2523;DHT22;1272;53.332;9.860;2024-01-30T09:46:15;5.60;99.90
2523;DHT22;1272;53.332;9.860;2024-01-30T09:48:41;5.60;99.90
2523;DHT22;1272;53.332;9.860;2024-01-30T09:51:09;5.70;99.90
2523;DHT22;1272;53.332;9.860;2024-01-30T09:53:36;5.80;99.90
2523;DHT22;1272;53.332;9.860;2024-01-30T09:56:02;5.90;99.90
2523;DHT22;1272;53.332;9.860;2024-01-30T09:58:28;6.00;99.90
2523;DHT22;1272;53.332;9.860;2024-01-30T10:00:54;6.00;99.90
2523;DHT22;1272;53.332;9.860;2024-01-30T10:03:19;6.10;99.90
2523;DHT22;1272;53.332;9.860;2024-01-30T10:05:51;6.20;99.90
2523;DHT22;1272;53.332;9.860;2024-01-30T10:08:18;6.30;99.90
2523;DHT22;1272;53.332;9.860;2024-01-30T10:10:49;6.40;99.90
2523;DHT22;1272;53.332;9.860;2024-01-30T10:13:16;6.40;99.90
2523;DHT22;1272;53.332;9.860;2024-01-30T10:15:42;6.50;99.90
2523;DHT22;1272;53.332;9.860;2024-01-30T10:18:08;6.50;99.90
2523;DHT22;1272;53.332;9.860;2024-01-30T10:20:35;6.60;99.90
2523;DHT22;1272;53.332;9.860;2024-01-30T10:23:01;6.70;99.90
2523;DHT22;1272;53.332;9.860;2024-01-30T10:25:27;6.70;99.90
2523;DHT22;1272;53.332;9.860;2024-01-30T10:27:53;6.80;99.90
2523;DHT22;1272;53.332;9.860;2024-01-30T10:30:24;6.90;99.90
2523;DHT22;1272;53.332;9.860;2024-01-30T10:32:50;7.00;99.90
2523;DHT22;1272;53.332;9.860;2024-01-30T10:35:16;7.10;99.90
2523;DHT22;1272;53.332;9.860;2024-01-30T10:37:47;7.10;72.30
2523;DHT22;1272;53.332;9.860;2024-01-30T10:40:14;7.20;34.40
2523;DHT22;1272;53.332;9.860;2024-01-30T10:42:43;7.30;1.00
2523;DHT22;1272;53.332;9.860;2024-01-30T10:45:13;7.40;1.00
2523;DHT22;1272;53.332;9.860;2024-01-30T10:47:44;7.40;1.00
2523;DHT22;1272;53.332;9.860;2024-01-30T10:50:13;7.50;99.90
2523;DHT22;1272;53.332;9.860;2024-01-30T10:52:40;7.60;1.00
2523;DHT22;1272;53.332;9.860;2024-01-30T10:55:07;7.70;1.00
2523;DHT22;1272;53.332;9.860;2024-01-30T10:57:37;7.80;99.90
2523;DHT22;1272;53.332;9.860;2024-01-30T11:00:10;7.80;88.70
2523;DHT22;1272;53.332;9.860;2024-01-30T11:02:41;7.90;1.00
2523;DHT22;1272;53.332;9.860;2024-01-30T11:05:09;7.90;1.00
2523;DHT22;1272;53.332;9.860;2024-01-30T11:07:35;8.10;1.00
2523;DHT22;1272;53.332;9.860;2024-01-30T11:10:04;8.20;99.90
2523;DHT22;1272;53.332;9.860;2024-01-30T11:12:32;8.20;21.20
2523;DHT22;1272;53.332;9.860;2024-01-30T11:17:43;8.30;1.00
2523;DHT22;1272;53.332;9.860;2024-01-30T11:20:19;8.40;1.00
2523;DHT22;1272;53.332;9.860;2024-01-30T11:22:46;8.50;99.90
2523;DHT22;1272;53.332;9.860;2024-01-30T11:25:16;8.50;99.90
2523;DHT22;1272;53.332;9.860;2024-01-30T11:27:46;8.60;43.20
2523;DHT22;1272;53.332;9.860;2024-01-30T11:30:29;8.60;1.00
2523;DHT22;1272;53.332;9.860;2024-01-30T11:33:14;8.60;1.00
2523;DHT22;1272;53.332;9.860;2024-01-30T11:35:44;8.70;25.40
2523;DHT22;1272;53.332;9.860;2024-01-30T11:38:13;8.70;1.00
2523;DHT22;1272;53.332;9.860;2024-01-30T11:40:39;8.70;99.90
2523;DHT22;1272;53.332;9.860;2024-01-30T11:43:07;8.70;99.90
2523;DHT22;1272;53.332;9.860;2024-01-30T11:45:34;8.70;99.90
2523;DHT22;1272;53.332;9.860;2024-01-30T11:48:00;8.70;99.90
2523;DHT22;1272;53.332;9.860;2024-01-30T11:50:32;8.80;99.90
2523;DHT22;1272;53.332;9.860;2024-01-30T11:52:59;8.90;99.90
2523;DHT22;1272;53.332;9.860;2024-01-30T11:55:25;8.90;99.90
2523;DHT22;1272;53.332;9.860;2024-01-30T11:57:51;8.90;8.30
2523;DHT22;1272;53.332;9.860;2024-01-30T12:00:17;9.00;99.90
2523;DHT22;1272;53.332;9.860;2024-01-30T12:02:54;9.10;57.70
2523;DHT22;1272;53.332;9.860;2024-01-30T12:05:24;9.10;78.30
2523;DHT22;1272;53.332;9.860;2024-01-30T12:07:50;9.10;21.70
2523;DHT22;1272;53.332;9.860;2024-01-30T12:10:16;9.10;1.00
2523;DHT22;1272;53.332;9.860;2024-01-30T12:12:46;9.00;1.00
2523;DHT22;1272;53.332;9.860;2024-01-30T12:15:13;9.10;1.00
2523;DHT22;1272;53.332;9.860;2024-01-30T12:17:39;9.10;1.00
2523;DHT22;1272;53.332;9.860;2024-01-30T12:20:05;9.10;1.00
2523;DHT22;1272;53.332;9.860;2024-01-30T12:22:46;9.10;1.00
2523;DHT22;1272;53.332;9.860;2024-01-30T12:25:16;9.10;1.00
2523;DHT22;1272;53.332;9.860;2024-01-30T12:27:44;9.10;1.00
2523;DHT22;1272;53.332;9.860;2024-01-30T12:30:13;9.20;17.20
2523;DHT22;1272;53.332;9.860;2024-01-30T12:32:40;9.20;1.00
2523;DHT22;1272;53.332;9.860;2024-01-30T12:35:17;9.20;1.00
2523;DHT22;1272;53.332;9.860;2024-01-30T12:37:44;9.30;1.00
2523;DHT22;1272;53.332;9.860;2024-01-30T12:40:11;9.20;1.00
2523;DHT22;1272;53.332;9.860;2024-01-30T12:42:40;9.30;1.00
2523;DHT22;1272;53.332;9.860;2024-01-30T12:45:07;9.30;1.00
2523;DHT22;1272;53.332;9.860;2024-01-30T12:47:33;9.30;1.00
2523;DHT22;1272;53.332;9.860;2024-01-30T12:50:02;9.30;1.00
2523;DHT22;1272;53.332;9.860;2024-01-30T12:52:28;9.40;1.00
2523;DHT22;1272;53.332;9.860;2024-01-30T12:54:54;9.40;1.00
2523;DHT22;1272;53.332;9.860;2024-01-30T12:57:20;9.30;1.00
2523;DHT22;1272;53.332;9.860;2024-01-30T12:59:46;9.30;1.00
2523;DHT22;1272;53.332;9.860;2024-01-30T13:02:12;9.30;50.50
2523;DHT22;1272;53.332;9.860;2024-01-30T13:04:39;9.30;99.90
2523;DHT22;1272;53.332;9.860;2024-01-30T13:07:05;9.30;99.90
2523;DHT22;1272;53.332;9.860;2024-01-30T13:09:31;9.30;99.90
2523;DHT22;1272;53.332;9.860;2024-01-30T13:11:57;9.30;99.90
2523;DHT22;1272;53.332;9.860;2024-01-30T13:14:24;9.30;99.90
2523;DHT22;1272;53.332;9.860;2024-01-30T13:16:50;9.20;99.90
2523;DHT22;1272;53.332;9.860;2024-01-30T13:19:16;9.20;1.00
2523;DHT22;1272;53.332;9.860;2024-01-30T13:21:42;9.20;1.00
2523;DHT22;1272;53.332;9.860;2024-01-30T13:24:08;9.20;1.00
2523;DHT22;1272;53.332;9.860;2024-01-30T13:26:34;9.20;1.00
2523;DHT22;1272;53.332;9.860;2024-01-30T13:28:59;9.30;1.00
2523;DHT22;1272;53.332;9.860;2024-01-30T13:31:25;9.30;1.00
2523;DHT22;1272;53.332;9.860;2024-01-30T13:33:53;9.20;1.00
2523;DHT22;1272;53.332;9.860;2024-01-30T13:36:18;9.30;1.00
2523;DHT22;1272;53.332;9.860;2024-01-30T13:38:44;9.30;1.00
2523;DHT22;1272;53.332;9.860;2024-01-30T13:41:10;9.30;1.00
2523;DHT22;1272;53.332;9.860;2024-01-30T13:43:35;9.30;1.00
2523;DHT22;1272;53.332;9.860;2024-01-30T13:46:01;9.40;1.00
2523;DHT22;1272;53.332;9.860;2024-01-30T13:48:27;9.40;1.00
2523;DHT22;1272;53.332;9.860;2024-01-30T13:50:53;9.40;1.00
2523;DHT22;1272;53.332;9.860;2024-01-30T13:53:19;9.40;1.00
2523;DHT22;1272;53.332;9.860;2024-01-30T13:55:45;9.50;99.90
2523;DHT22;1272;53.332;9.860;2024-01-30T13:58:11;9.40;1.00
2523;DHT22;1272;53.332;9.860;2024-01-30T14:00:37;9.40;1.00
2523;DHT22;1272;53.332;9.860;2024-01-30T14:03:03;9.50;99.90
2523;DHT22;1272;53.332;9.860;2024-01-30T14:05:28;9.50;99.90
2523;DHT22;1272;53.332;9.860;2024-01-30T14:07:54;9.50;99.90
2523;DHT22;1272;53.332;9.860;2024-01-30T14:10:20;9.50;99.90
2523;DHT22;1272;53.332;9.860;2024-01-30T14:12:46;9.40;1.00
2523;DHT22;1272;53.332;9.860;2024-01-30T14:15:14;9.40;1.00
2523;DHT22;1272;53.332;9.860;2024-01-30T14:17:46;9.50;1.00
2523;DHT22;1272;53.332;9.860;2024-01-30T14:20:14;9.40;1.00
2523;DHT22;1272;53.332;9.860;2024-01-30T14:22:42;9.40;42.20
2523;DHT22;1272;53.332;9.860;2024-01-30T14:25:08;9.40;99.90
2523;DHT22;1272;53.332;9.860;2024-01-30T14:27:35;9.40;99.90
2523;DHT22;1272;53.332;9.860;2024-01-30T14:30:01;9.50;99.90
2523;DHT22;1272;53.332;9.860;2024-01-30T14:32:28;9.50;99.90
2523;DHT22;1272;53.332;9.860;2024-01-30T14:34:54;9.60;43.00
2523;DHT22;1272;53.332;9.860;2024-01-30T14:37:23;9.50;68.60
2523;DHT22;1272;53.332;9.860;2024-01-30T14:39:49;9.50;99.90
2523;DHT22;1272;53.332;9.860;2024-01-30T14:42:15;9.60;99.90
2523;DHT22;1272;53.332;9.860;2024-01-30T14:44:42;9.50;99.90
2523;DHT22;1272;53.332;9.860;2024-01-30T14:47:08;9.60;99.90
2523;DHT22;1272;53.332;9.860;2024-01-30T14:49:34;9.60;99.90
2523;DHT22;1272;53.332;9.860;2024-01-30T14:52:00;9.60;99.90
2523;DHT22;1272;53.332;9.860;2024-01-30T14:54:26;9.60;99.90
2523;DHT22;1272;53.332;9.860;2024-01-30T14:56:53;9.50;99.90
2523;DHT22;1272;53.332;9.860;2024-01-30T14:59:18;9.60;99.90
2523;DHT22;1272;53.332;9.860;2024-01-30T15:01:44;9.60;99.90
2523;DHT22;1272;53.332;9.860;2024-01-30T15:04:10;9.60;99.90
2523;DHT22;1272;53.332;9.860;2024-01-30T15:06:36;9.60;99.90
2523;DHT22;1272;53.332;9.860;2024-01-30T15:09:02;9.60;99.90
2523;DHT22;1272;53.332;9.860;2024-01-30T15:11:28;9.60;1.00
2523;DHT22;1272;53.332;9.860;2024-01-30T15:13:54;9.60;1.00
2523;DHT22;1272;53.332;9.860;2024-01-30T15:16:20;9.70;1.00
2523;DHT22;1272;53.332;9.860;2024-01-30T15:18:46;9.70;1.00
2523;DHT22;1272;53.332;9.860;2024-01-30T15:21:11;9.60;1.00
2523;DHT22;1272;53.332;9.860;2024-01-30T15:23:37;9.60;1.00
2523;DHT22;1272;53.332;9.860;2024-01-30T15:26:03;9.70;1.00
2523;DHT22;1272;53.332;9.860;2024-01-30T15:28:39;9.70;1.00
2523;DHT22;1272;53.332;9.860;2024-01-30T15:31:05;9.70;1.00
2523;DHT22;1272;53.332;9.860;2024-01-30T15:33:32;9.70;1.00
2523;DHT22;1272;53.332;9.860;2024-01-30T15:36:00;9.70;1.00
2523;DHT22;1272;53.332;9.860;2024-01-30T15:38:26;9.70;1.00
2523;DHT22;1272;53.332;9.860;2024-01-30T15:40:53;9.70;1.00
2523;DHT22;1272;53.332;9.860;2024-01-30T15:43:18;9.70;9.00
2523;DHT22;1272;53.332;9.860;2024-01-30T15:45:44;9.70;39.10
2523;DHT22;1272;53.332;9.860;2024-01-30T15:48:10;9.70;83.30
2523;DHT22;1272;53.332;9.860;2024-01-30T15:50:36;9.70;99.90
2523;DHT22;1272;53.332;9.860;2024-01-30T15:53:01;9.90;1.00
2523;DHT22;1272;53.332;9.860;2024-01-30T15:55:27;9.80;1.00
2523;DHT22;1272;53.332;9.860;2024-01-30T15:57:53;9.80;26.70
2523;DHT22;1272;53.332;9.860;2024-01-30T16:00:19;9.70;99.90
2523;DHT22;1272;53.332;9.860;2024-01-30T16:02:44;9.70;99.90
2523;DHT22;1272;53.332;9.860;2024-01-30T16:05:10;9.70;99.90
2523;DHT22;1272;53.332;9.860;2024-01-30T16:07:37;9.60;99.90
2523;DHT22;1272;53.332;9.860;2024-01-30T16:10:03;9.60;1.00
2523;DHT22;1272;53.332;9.860;2024-01-30T16:12:28;9.60;1.00
2523;DHT22;1272;53.332;9.860;2024-01-30T16:14:54;9.60;99.90
2523;DHT22;1272;53.332;9.860;2024-01-30T16:17:20;9.60;99.90
2523;DHT22;1272;53.332;9.860;2024-01-30T16:19:47;9.60;99.90
2523;DHT22;1272;53.332;9.860;2024-01-30T16:22:14;9.50;1.00